sensor_id;sensor_type;location;lat;lon;timestamp;temperature;humidity
15103;DHT22;7652;53.584;9.998;2023-01-20T00:00:37;2.10;99.90
15103;DHT22;7652;53.584;9.998;2023-01-20T00:03:41;2.20;99.90
15103;DHT22;7652;53.584;9.998;2023-01-20T00:06:46;2.20;99.90
15103;DHT22;7652;53.584;9.998;2023-01-20T00:09:49;2.10;99.90
15103;DHT22;7652;53.584;9.998;2023-01-20T00:12:53;2.10;99.90
15103;DHT22;7652;53.584;9.998;2023-01-20T00:15:56;2.20;99.90
15103;DHT22;7652;53.584;9.998;2023-01-20T00:19:01;2.10;99.90
15103;DHT22;7652;53.584;9.998;2023-01-20T00:22:04;2.20;99.90
15103;DHT22;7652;53.584;9.998;2023-01-20T00:25:08;2.20;99.90
15103;DHT22;7652;53.584;9.998;2023-01-20T00:28:12;2.10;99.90
15103;DHT22;7652;53.584;9.998;2023-01-20T00:31:17;2.10;99.90
15103;DHT22;7652;53.584;9.998;2023-01-20T00:34:22;2.10;99.90
15103;DHT22;7652;53.584;9.998;2023-01-20T00:37:25;2.10;99.90
15103;DHT22;7652;53.584;9.998;2023-01-20T00:40:28;2.00;99.90
15103;DHT22;7652;53.584;9.998;2023-01-20T00:43:31;2.00;99.90
15103;DHT22;7652;53.584;9.998;2023-01-20T00:46:34;2.00;99.90
15103;DHT22;7652;53.584;9.998;2023-01-20T00:49:39;2.00;99.90
15103;DHT22;7652;53.584;9.998;2023-01-20T00:52:42;1.90;99.90
15103;DHT22;7652;53.584;9.998;2023-01-20T00:55:45;1.90;99.90
15103;DHT22;7652;53.584;9.998;2023-01-20T00:58:48;1.90;99.90
15103;DHT22;7652;53.584;9.998;2023-01-20T01:01:51;2.00;99.90
15103;DHT22;7652;53.584;9.998;2023-01-20T01:04:56;1.90;99.90
15103;DHT22;7652;53.584;9.998;2023-01-20T01:07:59;1.90;99.90
15103;DHT22;7652;53.584;9.998;2023-01-20T01:11:02;1.90;99.90
15103;DHT22;7652;53.584;9.998;2023-01-20T01:14:05;2.00;99.90
15103;DHT22;7652;53.584;9.998;2023-01-20T01:17:08;2.00;99.90
15103;DHT22;7652;53.584;9.998;2023-01-20T01:20:13;1.90;99.90
15103;DHT22;7652;53.584;9.998;2023-01-20T01:23:16;1.90;99.90
15103;DHT22;7652;53.584;9.998;2023-01-20T01:26:19;1.90;99.90
15103;DHT22;7652;53.584;9.998;2023-01-20T01:29:23;1.90;99.90
15103;DHT22;7652;53.584;9.998;2023-01-20T01:32:26;1.90;99.90
15103;DHT22;7652;53.584;9.998;2023-01-20T01:35:30;1.90;99.90
15103;DHT22;7652;53.584;9.998;2023-01-20T01:38:33;1.90;99.90
15103;DHT22;7652;53.584;9.998;2023-01-20T01:41:36;1.90;99.90
15103;DHT22;7652;53.584;9.998;2023-01-20T01:45:16;1.90;99.90
15103;DHT22;7652;53.584;9.998;2023-01-20T01:48:22;1.90;99.90
15103;DHT22;7652;53.584;9.998;2023-01-20T01:51:30;1.90;99.90
15103;DHT22;7652;53.584;9.998;2023-01-20T01:54:36;1.90;99.90
15103;DHT22;7652;53.584;9.998;2023-01-20T01:57:40;1.90;99.90
15103;DHT22;7652;53.584;9.998;2023-01-20T02:00:43;1.90;99.90
15103;DHT22;7652;53.584;9.998;2023-01-20T02:03:51;1.90;99.90
15103;DHT22;7652;53.584;9.998;2023-01-20T02:07:00;1.90;99.90
15103;DHT22;7652;53.584;9.998;2023-01-20T02:10:05;1.90;99.90
15103;DHT22;7652;53.584;9.998;2023-01-20T02:13:08;2.00;99.90
15103;DHT22;7652;53.584;9.998;2023-01-20T02:16:16;1.90;99.90
15103;DHT22;7652;53.584;9.998;2023-01-20T02:19:41;2.00;99.90
15103;DHT22;7652;53.584;9.998;2023-01-20T02:22:55;2.00;99.90
15103;DHT22;7652;53.584;9.998;2023-01-20T02:26:21;1.90;99.90
15103;DHT22;7652;53.584;9.998;2023-01-20T02:30:10;1.90;99.90
15103;DHT22;7652;53.584;9.998;2023-01-20T02:33:26;1.90;99.90
15103;DHT22;7652;53.584;9.998;2023-01-20T02:36:33;1.90;99.90
15103;DHT22;7652;53.584;9.998;2023-01-20T02:39:46;1.90;99.90
15103;DHT22;7652;53.584;9.998;2023-01-20T02:42:58;1.80;99.90
15103;DHT22;7652;53.584;9.998;2023-01-20T02:46:08;1.90;99.90
15103;DHT22;7652;53.584;9.998;2023-01-20T02:49:18;1.90;99.90
15103;DHT22;7652;53.584;9.998;2023-01-20T02:52:25;1.90;99.90
15103;DHT22;7652;53.584;9.998;2023-01-20T02:55:33;1.80;99.90
15103;DHT22;7652;53.584;9.998;2023-01-20T02:58:40;1.80;99.90
15103;DHT22;7652;53.584;9.998;2023-01-20T03:01:48;1.80;99.90
15103;DHT22;7652;53.584;9.998;2023-01-20T03:05:00;1.70;99.90
15103;DHT22;7652;53.584;9.998;2023-01-20T03:08:07;1.70;99.90
15103;DHT22;7652;53.584;9.998;2023-01-20T03:11:12;1.70;99.90
15103;DHT22;7652;53.584;9.998;2023-01-20T03:14:16;1.70;99.90
15103;DHT22;7652;53.584;9.998;2023-01-20T03:17:19;1.80;99.90
15103;DHT22;7652;53.584;9.998;2023-01-20T03:20:24;1.70;99.90
15103;DHT22;7652;53.584;9.998;2023-01-20T03:23:29;1.70;99.90
15103;DHT22;7652;53.584;9.998;2023-01-20T03:26:33;1.70;99.90
15103;DHT22;7652;53.584;9.998;2023-01-20T03:29:37;1.70;99.90
15103;DHT22;7652;53.584;9.998;2023-01-20T03:32:41;1.60;99.90
15103;DHT22;7652;53.584;9.998;2023-01-20T03:35:46;1.60;99.90
15103;DHT22;7652;53.584;9.998;2023-01-20T03:38:49;1.60;99.90
15103;DHT22;7652;53.584;9.998;2023-01-20T03:42:01;1.50;99.90
15103;DHT22;7652;53.584;9.998;2023-01-20T03:45:11;1.50;99.90
15103;DHT22;7652;53.584;9.998;2023-01-20T03:48:19;1.50;99.90
15103;DHT22;7652;53.584;9.998;2023-01-20T03:51:32;1.60;99.90
15103;DHT22;7652;53.584;9.998;2023-01-20T03:54:41;1.60;99.90
15103;DHT22;7652;53.584;9.998;2023-01-20T03:57:52;1.70;99.90
15103;DHT22;7652;53.584;9.998;2023-01-20T04:00:57;1.70;99.90
15103;DHT22;7652;53.584;9.998;2023-01-20T04:04:02;1.80;99.90
15103;DHT22;7652;53.584;9.998;2023-01-20T04:07:11;1.80;99.90
15103;DHT22;7652;53.584;9.998;2023-01-20T04:10:16;1.70;99.90
15103;DHT22;7652;53.584;9.998;2023-01-20T04:13:19;1.70;99.90
15103;DHT22;7652;53.584;9.998;2023-01-20T04:16:24;1.80;99.90
15103;DHT22;7652;53.584;9.998;2023-01-20T04:19:28;1.80;99.90
15103;DHT22;7652;53.584;9.998;2023-01-20T04:22:36;1.80;99.90
15103;DHT22;7652;53.584;9.998;2023-01-20T04:25:40;1.80;99.90
15103;DHT22;7652;53.584;9.998;2023-01-20T04:28:43;1.80;99.90
15103;DHT22;7652;53.584;9.998;2023-01-20T04:31:46;1.80;99.90
15103;DHT22;7652;53.584;9.998;2023-01-20T04:34:49;1.80;99.90
15103;DHT22;7652;53.584;9.998;2023-01-20T04:37:54;1.80;99.90
15103;DHT22;7652;53.584;9.998;2023-01-20T04:40:57;1.80;99.90
15103;DHT22;7652;53.584;9.998;2023-01-20T04:44:00;1.90;99.90
15103;DHT22;7652;53.584;9.998;2023-01-20T04:47:03;1.90;99.90
15103;DHT22;7652;53.584;9.998;2023-01-20T04:50:07;1.90;99.90
15103;DHT22;7652;53.584;9.998;2023-01-20T04:53:13;1.90;99.90
15103;DHT22;7652;53.584;9.998;2023-01-20T04:56:19;1.90;99.90
15103;DHT22;7652;53.584;9.998;2023-01-20T04:59:22;1.90;99.90
15103;DHT22;7652;53.584;9.998;2023-01-20T05:02:25;1.90;99.90
15103;DHT22;7652;53.584;9.998;2023-01-20T05:05:29;1.90;99.90
15103;DHT22;7652;53.584;9.998;2023-01-20T05:08:33;2.00;99.90
15103;DHT22;7652;53.584;9.998;2023-01-20T05:11:36;1.90;99.90
15103;DHT22;7652;53.584;9.998;2023-01-20T05:14:39;1.90;99.90
15103;DHT22;7652;53.584;9.998;2023-01-20T05:17:42;2.00;99.90
15103;DHT22;7652;53.584;9.998;2023-01-20T05:20:45;2.00;99.90
15103;DHT22;7652;53.584;9.998;2023-01-20T05:23:52;2.00;99.90
15103;DHT22;7652;53.584;9.998;2023-01-20T05:26:55;2.10;99.90
15103;DHT22;7652;53.584;9.998;2023-01-20T05:30:01;2.10;99.90
15103;DHT22;7652;53.584;9.998;2023-01-20T05:33:04;2.10;99.90
15103;DHT22;7652;53.584;9.998;2023-01-20T05:36:09;2.10;99.90
15103;DHT22;7652;53.584;9.998;2023-01-20T05:39:13;2.00;99.90
15103;DHT22;7652;53.584;9.998;2023-01-20T05:42:16;2.00;99.90
15103;DHT22;7652;53.584;9.998;2023-01-20T05:45:19;2.00;99.90
15103;DHT22;7652;53.584;9.998;2023-01-20T05:48:22;2.10;99.90
15103;DHT22;7652;53.584;9.998;2023-01-20T05:51:25;2.00;99.90
15103;DHT22;7652;53.584;9.998;2023-01-20T05:54:30;2.10;99.90
15103;DHT22;7652;53.584;9.998;2023-01-20T05:57:33;2.20;99.90
15103;DHT22;7652;53.584;9.998;2023-01-20T06:00:36;2.10;99.90
15103;DHT22;7652;53.584;9.998;2023-01-20T06:03:39;2.20;99.90
15103;DHT22;7652;53.584;9.998;2023-01-20T06:06:42;2.20;99.90
15103;DHT22;7652;53.584;9.998;2023-01-20T06:09:47;2.20;99.90
15103;DHT22;7652;53.584;9.998;2023-01-20T06:12:50;2.20;99.90
15103;DHT22;7652;53.584;9.998;2023-01-20T06:15:54;2.20;99.90
15103;DHT22;7652;53.584;9.998;2023-01-20T06:18:57;2.20;99.90
15103;DHT22;7652;53.584;9.998;2023-01-20T06:22:15;2.20;99.90
15103;DHT22;7652;53.584;9.998;2023-01-20T06:25:22;2.30;99.90
15103;DHT22;7652;53.584;9.998;2023-01-20T06:28:25;2.30;99.90
15103;DHT22;7652;53.584;9.998;2023-01-20T06:31:28;2.30;99.90
15103;DHT22;7652;53.584;9.998;2023-01-20T06:34:31;2.30;99.90
15103;DHT22;7652;53.584;9.998;2023-01-20T06:37:34;2.30;99.90
15103;DHT22;7652;53.584;9.998;2023-01-20T06:40:39;2.30;99.90
15103;DHT22;7652;53.584;9.998;2023-01-20T06:43:42;2.40;99.90
15103;DHT22;7652;53.584;9.998;2023-01-20T06:46:45;2.30;99.90
15103;DHT22;7652;53.584;9.998;2023-01-20T06:49:49;2.50;99.90
15103;DHT22;7652;53.584;9.998;2023-01-20T06:52:52;2.50;99.90
15103;DHT22;7652;53.584;9.998;2023-01-20T06:55:59;2.50;99.90
15103;DHT22;7652;53.584;9.998;2023-01-20T06:59:02;2.40;99.90
15103;DHT22;7652;53.584;9.998;2023-01-20T07:02:05;2.40;99.90
15103;DHT22;7652;53.584;9.998;2023-01-20T07:05:09;2.30;99.90
15103;DHT22;7652;53.584;9.998;2023-01-20T07:08:12;2.30;99.90
15103;DHT22;7652;53.584;9.998;2023-01-20T07:11:16;2.30;99.90
15103;DHT22;7652;53.584;9.998;2023-01-20T07:14:20;2.30;99.90
15103;DHT22;7652;53.584;9.998;2023-01-20T07:17:23;2.30;99.90
15103;DHT22;7652;53.584;9.998;2023-01-20T07:20:26;2.30;99.90
15103;DHT22;7652;53.584;9.998;2023-01-20T07:23:30;2.30;99.90
15103;DHT22;7652;53.584;9.998;2023-01-20T07:26:35;2.30;99.90
15103;DHT22;7652;53.584;9.998;2023-01-20T07:29:38;2.30;99.90
15103;DHT22;7652;53.584;9.998;2023-01-20T07:32:41;2.30;99.90
15103;DHT22;7652;53.584;9.998;2023-01-20T07:35:49;2.30;99.90
15103;DHT22;7652;53.584;9.998;2023-01-20T07:38:52;2.20;99.90
15103;DHT22;7652;53.584;9.998;2023-01-20T07:41:57;2.20;99.90
15103;DHT22;7652;53.584;9.998;2023-01-20T07:45:00;2.30;99.90
15103;DHT22;7652;53.584;9.998;2023-01-20T07:48:03;2.30;99.90
15103;DHT22;7652;53.584;9.998;2023-01-20T07:51:09;2.30;99.90
15103;DHT22;7652;53.584;9.998;2023-01-20T07:54:13;2.30;99.90
15103;DHT22;7652;53.584;9.998;2023-01-20T07:57:17;2.30;99.90
15103;DHT22;7652;53.584;9.998;2023-01-20T08:00:20;2.40;99.90
15103;DHT22;7652;53.584;9.998;2023-01-20T08:03:23;2.50;99.90
15103;DHT22;7652;53.584;9.998;2023-01-20T08:06:29;2.50;99.90
15103;DHT22;7652;53.584;9.998;2023-01-20T08:09:32;2.50;99.90
15103;DHT22;7652;53.584;9.998;2023-01-20T08:12:36;2.60;99.90
15103;DHT22;7652;53.584;9.998;2023-01-20T08:15:39;2.60;99.90
15103;DHT22;7652;53.584;9.998;2023-01-20T08:18:42;2.50;99.90
15103;DHT22;7652;53.584;9.998;2023-01-20T08:21:45;2.60;99.90
15103;DHT22;7652;53.584;9.998;2023-01-20T08:24:48;2.60;99.90
15103;DHT22;7652;53.584;9.998;2023-01-20T08:27:52;2.60;99.90
15103;DHT22;7652;53.584;9.998;2023-01-20T08:31:02;2.60;99.90
15103;DHT22;7652;53.584;9.998;2023-01-20T08:34:05;2.70;99.90
15103;DHT22;7652;53.584;9.998;2023-01-20T08:37:08;2.70;99.90
15103;DHT22;7652;53.584;9.998;2023-01-20T08:40:11;2.70;99.90
15103;DHT22;7652;53.584;9.998;2023-01-20T08:43:16;2.80;99.90
15103;DHT22;7652;53.584;9.998;2023-01-20T08:46:20;2.80;99.90
15103;DHT22;7652;53.584;9.998;2023-01-20T08:49:24;2.80;99.90
15103;DHT22;7652;53.584;9.998;2023-01-20T08:52:27;2.90;99.90
15103;DHT22;7652;53.584;9.998;2023-01-20T08:55:30;3.00;99.90
15103;DHT22;7652;53.584;9.998;2023-01-20T08:58:35;3.00;99.90
15103;DHT22;7652;53.584;9.998;2023-01-20T09:01:38;3.00;99.90
15103;DHT22;7652;53.584;9.998;2023-01-20T09:04:43;3.00;99.90
15103;DHT22;7652;53.584;9.998;2023-01-20T09:07:46;3.10;99.90
15103;DHT22;7652;53.584;9.998;2023-01-20T09:10:49;3.20;99.90
15103;DHT22;7652;53.584;9.998;2023-01-20T09:13:56;3.10;99.90
15103;DHT22;7652;53.584;9.998;2023-01-20T09:16:59;3.10;99.90
15103;DHT22;7652;53.584;9.998;2023-01-20T09:20:04;3.10;99.90
15103;DHT22;7652;53.584;9.998;2023-01-20T09:23:07;3.10;99.90
15103;DHT22;7652;53.584;9.998;2023-01-20T09:26:10;3.10;99.90
15103;DHT22;7652;53.584;9.998;2023-01-20T09:29:20;3.20;99.90
15103;DHT22;7652;53.584;9.998;2023-01-20T09:32:23;3.20;99.90
15103;DHT22;7652;53.584;9.998;2023-01-20T09:35:26;3.20;99.90
15103;DHT22;7652;53.584;9.998;2023-01-20T09:38:29;3.20;99.90
15103;DHT22;7652;53.584;9.998;2023-01-20T09:41:50;3.10;99.90
15103;DHT22;7652;53.584;9.998;2023-01-20T09:45:18;3.20;99.90
15103;DHT22;7652;53.584;9.998;2023-01-20T09:48:34;3.30;99.90
15103;DHT22;7652;53.584;9.998;2023-01-20T09:52:05;3.50;99.90
15103;DHT22;7652;53.584;9.998;2023-01-20T09:55:31;3.60;99.90
15103;DHT22;7652;53.584;9.998;2023-01-20T09:58:40;3.70;99.90
15103;DHT22;7652;53.584;9.998;2023-01-20T10:01:50;3.70;99.90
15103;DHT22;7652;53.584;9.998;2023-01-20T10:04:58;3.80;99.90
15103;DHT22;7652;53.584;9.998;2023-01-20T10:08:08;3.80;99.90
15103;DHT22;7652;53.584;9.998;2023-01-20T10:11:17;4.00;99.90
15103;DHT22;7652;53.584;9.998;2023-01-20T10:14:23;4.10;99.90
15103;DHT22;7652;53.584;9.998;2023-01-20T10:17:35;4.30;99.90
15103;DHT22;7652;53.584;9.998;2023-01-20T10:20:43;4.50;99.90
15103;DHT22;7652;53.584;9.998;2023-01-20T10:23:51;4.60;99.90
15103;DHT22;7652;53.584;9.998;2023-01-20T10:26:56;4.80;99.90
15103;DHT22;7652;53.584;9.998;2023-01-20T10:30:06;4.80;99.90
15103;DHT22;7652;53.584;9.998;2023-01-20T10:33:12;4.90;99.90
15103;DHT22;7652;53.584;9.998;2023-01-20T10:36:22;5.00;99.90
15103;DHT22;7652;53.584;9.998;2023-01-20T10:39:29;5.20;99.90
15103;DHT22;7652;53.584;9.998;2023-01-20T10:42:35;5.50;99.90
15103;DHT22;7652;53.584;9.998;2023-01-20T10:45:49;6.00;99.90
15103;DHT22;7652;53.584;9.998;2023-01-20T10:49:16;6.70;99.90
15103;DHT22;7652;53.584;9.998;2023-01-20T10:52:33;7.10;99.90
15103;DHT22;7652;53.584;9.998;2023-01-20T10:55:57;7.10;99.90
15103;DHT22;7652;53.584;9.998;2023-01-20T10:59:08;6.90;99.90
15103;DHT22;7652;53.584;9.998;2023-01-20T11:02:16;7.00;99.90
15103;DHT22;7652;53.584;9.998;2023-01-20T11:05:23;6.70;99.90
15103;DHT22;7652;53.584;9.998;2023-01-20T11:08:28;6.40;99.90
15103;DHT22;7652;53.584;9.998;2023-01-20T11:11:31;6.20;99.90
15103;DHT22;7652;53.584;9.998;2023-01-20T11:14:34;6.20;99.90
15103;DHT22;7652;53.584;9.998;2023-01-20T11:17:38;6.40;99.90
15103;DHT22;7652;53.584;9.998;2023-01-20T11:20:45;6.70;99.90
15103;DHT22;7652;53.584;9.998;2023-01-20T11:23:50;6.70;99.90
15103;DHT22;7652;53.584;9.998;2023-01-20T11:27:02;6.50;99.90
15103;DHT22;7652;53.584;9.998;2023-01-20T11:30:14;6.50;99.90
15103;DHT22;7652;53.584;9.998;2023-01-20T11:33:24;6.20;99.90
15103;DHT22;7652;53.584;9.998;2023-01-20T11:36:28;6.10;99.90
15103;DHT22;7652;53.584;9.998;2023-01-20T11:39:34;6.30;99.90
15103;DHT22;7652;53.584;9.998;2023-01-20T11:42:42;6.30;99.90
15103;DHT22;7652;53.584;9.998;2023-01-20T11:45:45;6.90;99.90
15103;DHT22;7652;53.584;9.998;2023-01-20T11:48:49;7.30;99.90
15103;DHT22;7652;53.584;9.998;2023-01-20T11:51:55;8.10;99.90
15103;DHT22;7652;53.584;9.998;2023-01-20T11:55:06;8.10;99.90
15103;DHT22;7652;53.584;9.998;2023-01-20T11:58:16;7.90;99.90
15103;DHT22;7652;53.584;9.998;2023-01-20T12:01:23;7.80;99.90
15103;DHT22;7652;53.584;9.998;2023-01-20T12:04:50;7.80;99.90
15103;DHT22;7652;53.584;9.998;2023-01-20T12:08:01;8.10;99.90
15103;DHT22;7652;53.584;9.998;2023-01-20T12:11:06;8.90;99.90
15103;DHT22;7652;53.584;9.998;2023-01-20T12:14:18;9.60;99.90
15103;DHT22;7652;53.584;9.998;2023-01-20T12:17:42;10.40;99.90
15103;DHT22;7652;53.584;9.998;2023-01-20T12:20:49;9.60;99.90
15103;DHT22;7652;53.584;9.998;2023-01-20T12:24:01;8.90;99.90
15103;DHT22;7652;53.584;9.998;2023-01-20T12:27:10;8.50;99.90
15103;DHT22;7652;53.584;9.998;2023-01-20T12:30:35;8.00;99.90
15103;DHT22;7652;53.584;9.998;2023-01-20T12:33:42;7.40;99.90
15103;DHT22;7652;53.584;9.998;2023-01-20T12:36:55;8.00;99.90
15103;DHT22;7652;53.584;9.998;2023-01-20T12:40:19;8.60;99.90
15103;DHT22;7652;53.584;9.998;2023-01-20T12:43:32;8.90;99.90
15103;DHT22;7652;53.584;9.998;2023-01-20T12:46:44;9.30;99.90
15103;DHT22;7652;53.584;9.998;2023-01-20T12:49:58;8.80;99.90
15103;DHT22;7652;53.584;9.998;2023-01-20T12:53:20;8.30;99.90
15103;DHT22;7652;53.584;9.998;2023-01-20T12:56:35;8.70;99.90
15103;DHT22;7652;53.584;9.998;2023-01-20T12:59:46;8.90;99.90
15103;DHT22;7652;53.584;9.998;2023-01-20T13:03:27;8.30;99.90
15103;DHT22;7652;53.584;9.998;2023-01-20T13:06:51;7.90;99.90
15103;DHT22;7652;53.584;9.998;2023-01-20T13:10:05;7.50;99.90
15103;DHT22;7652;53.584;9.998;2023-01-20T13:13:23;8.00;99.90
15103;DHT22;7652;53.584;9.998;2023-01-20T13:16:35;8.70;99.90
15103;DHT22;7652;53.584;9.998;2023-01-20T13:19:43;8.60;99.90
15103;DHT22;7652;53.584;9.998;2023-01-20T13:22:50;9.00;99.90
15103;DHT22;7652;53.584;9.998;2023-01-20T13:25:54;9.50;99.90
15103;DHT22;7652;53.584;9.998;2023-01-20T13:29:00;9.90;99.90
15103;DHT22;7652;53.584;9.998;2023-01-20T13:32:15;10.50;99.90
15103;DHT22;7652;53.584;9.998;2023-01-20T13:35:44;11.10;99.90
15103;DHT22;7652;53.584;9.998;2023-01-20T13:38:49;11.00;99.90
15103;DHT22;7652;53.584;9.998;2023-01-20T13:41:52;10.90;99.90
15103;DHT22;7652;53.584;9.998;2023-01-20T13:45:23;10.40;99.90
15103;DHT22;7652;53.584;9.998;2023-01-20T13:48:27;10.10;99.90
15103;DHT22;7652;53.584;9.998;2023-01-20T13:51:44;9.90;99.90
15103;DHT22;7652;53.584;9.998;2023-01-20T13:54:47;9.70;99.90
15103;DHT22;7652;53.584;9.998;2023-01-20T13:57:50;9.40;99.90
15103;DHT22;7652;53.584;9.998;2023-01-20T14:00:56;8.50;99.90
15103;DHT22;7652;53.584;9.998;2023-01-20T14:04:01;8.60;99.90
15103;DHT22;7652;53.584;9.998;2023-01-20T14:07:05;8.90;99.90
15103;DHT22;7652;53.584;9.998;2023-01-20T14:10:11;9.20;99.90
15103;DHT22;7652;53.584;9.998;2023-01-20T14:13:20;9.30;99.90
15103;DHT22;7652;53.584;9.998;2023-01-20T14:16:26;9.80;99.90
15103;DHT22;7652;53.584;9.998;2023-01-20T14:19:31;9.20;99.90
15103;DHT22;7652;53.584;9.998;2023-01-20T14:22:34;9.00;99.90
15103;DHT22;7652;53.584;9.998;2023-01-20T14:25:37;8.70;99.90
15103;DHT22;7652;53.584;9.998;2023-01-20T14:28:46;8.20;99.90
15103;DHT22;7652;53.584;9.998;2023-01-20T14:31:51;8.10;99.90
15103;DHT22;7652;53.584;9.998;2023-01-20T14:34:55;7.60;99.90
15103;DHT22;7652;53.584;9.998;2023-01-20T14:37:58;7.10;99.90
15103;DHT22;7652;53.584;9.998;2023-01-20T14:41:02;7.00;99.90
15103;DHT22;7652;53.584;9.998;2023-01-20T14:44:16;7.00;99.90
15103;DHT22;7652;53.584;9.998;2023-01-20T14:47:23;7.00;99.90
15103;DHT22;7652;53.584;9.998;2023-01-20T14:50:27;6.70;99.90
15103;DHT22;7652;53.584;9.998;2023-01-20T14:53:30;6.60;99.90
15103;DHT22;7652;53.584;9.998;2023-01-20T14:56:33;6.30;99.90
15103;DHT22;7652;53.584;9.998;2023-01-20T14:59:37;6.30;99.90
15103;DHT22;7652;53.584;9.998;2023-01-20T15:02:42;6.10;99.90
15103;DHT22;7652;53.584;9.998;2023-01-20T15:05:53;5.90;99.90
15103;DHT22;7652;53.584;9.998;2023-01-20T15:08:57;6.00;99.90
15103;DHT22;7652;53.584;9.998;2023-01-20T15:12:30;5.90;99.90
15103;DHT22;7652;53.584;9.998;2023-01-20T15:15:34;5.60;99.90
15103;DHT22;7652;53.584;9.998;2023-01-20T15:18:39;5.80;99.90
15103;DHT22;7652;53.584;9.998;2023-01-20T15:21:43;5.80;99.90
15103;DHT22;7652;53.584;9.998;2023-01-20T15:24:47;5.80;99.90
15103;DHT22;7652;53.584;9.998;2023-01-20T15:27:51;5.70;99.90
15103;DHT22;7652;53.584;9.998;2023-01-20T15:30:56;5.60;99.90
15103;DHT22;7652;53.584;9.998;2023-01-20T15:34:02;5.60;99.90
15103;DHT22;7652;53.584;9.998;2023-01-20T15:37:10;5.50;99.90
15103;DHT22;7652;53.584;9.998;2023-01-20T15:40:20;5.40;99.90
15103;DHT22;7652;53.584;9.998;2023-01-20T15:43:23;5.30;99.90
15103;DHT22;7652;53.584;9.998;2023-01-20T15:46:26;5.20;99.90
15103;DHT22;7652;53.584;9.998;2023-01-20T15:49:31;5.20;99.90
15103;DHT22;7652;53.584;9.998;2023-01-20T15:52:34;5.10;99.90
15103;DHT22;7652;53.584;9.998;2023-01-20T15:55:44;5.00;99.90
15103;DHT22;7652;53.584;9.998;2023-01-20T15:58:48;5.10;99.90
15103;DHT22;7652;53.584;9.998;2023-01-20T16:01:51;5.00;99.90
15103;DHT22;7652;53.584;9.998;2023-01-20T16:04:56;5.00;99.90
15103;DHT22;7652;53.584;9.998;2023-01-20T16:07:59;5.00;99.90
15103;DHT22;7652;53.584;9.998;2023-01-20T16:11:02;5.00;99.90
15103;DHT22;7652;53.584;9.998;2023-01-20T16:14:05;4.80;99.90
15103;DHT22;7652;53.584;9.998;2023-01-20T16:17:13;4.80;99.90
15103;DHT22;7652;53.584;9.998;2023-01-20T16:20:21;4.80;99.90
15103;DHT22;7652;53.584;9.998;2023-01-20T16:23:24;4.60;99.90
15103;DHT22;7652;53.584;9.998;2023-01-20T16:26:28;4.50;99.90
15103;DHT22;7652;53.584;9.998;2023-01-20T16:29:33;4.40;99.90
15103;DHT22;7652;53.584;9.998;2023-01-20T16:32:36;4.40;99.90
15103;DHT22;7652;53.584;9.998;2023-01-20T16:35:40;4.40;99.90
15103;DHT22;7652;53.584;9.998;2023-01-20T16:38:45;4.40;99.90
15103;DHT22;7652;53.584;9.998;2023-01-20T16:41:48;4.30;99.90
15103;DHT22;7652;53.584;9.998;2023-01-20T16:44:51;4.20;99.90
15103;DHT22;7652;53.584;9.998;2023-01-20T16:47:54;4.10;99.90
15103;DHT22;7652;53.584;9.998;2023-01-20T16:50:59;3.90;99.90
15103;DHT22;7652;53.584;9.998;2023-01-20T16:54:06;4.10;99.90
15103;DHT22;7652;53.584;9.998;2023-01-20T16:57:09;4.30;99.90
15103;DHT22;7652;53.584;9.998;2023-01-20T17:03:19;4.30;99.90
15103;DHT22;7652;53.584;9.998;2023-01-20T17:06:25;4.40;99.90
15103;DHT22;7652;53.584;9.998;2023-01-20T17:09:29;4.10;99.90
15103;DHT22;7652;53.584;9.998;2023-01-20T17:12:32;4.10;99.90
15103;DHT22;7652;53.584;9.998;2023-01-20T17:15:36;4.10;99.90
15103;DHT22;7652;53.584;9.998;2023-01-20T17:18:41;3.90;99.90
15103;DHT22;7652;53.584;9.998;2023-01-20T17:21:47;3.90;99.90
15103;DHT22;7652;53.584;9.998;2023-01-20T17:24:51;3.90;99.90
15103;DHT22;7652;53.584;9.998;2023-01-20T17:27:54;3.70;99.90
15103;DHT22;7652;53.584;9.998;2023-01-20T17:30:59;3.90;99.90
15103;DHT22;7652;53.584;9.998;2023-01-20T17:34:02;3.80;99.90
15103;DHT22;7652;53.584;9.998;2023-01-20T17:37:07;3.80;99.90
15103;DHT22;7652;53.584;9.998;2023-01-20T17:40:11;3.80;99.90
15103;DHT22;7652;53.584;9.998;2023-01-20T17:43:14;4.00;99.90
15103;DHT22;7652;53.584;9.998;2023-01-20T17:46:19;3.80;99.90
15103;DHT22;7652;53.584;9.998;2023-01-20T17:49:23;3.70;99.90
15103;DHT22;7652;53.584;9.998;2023-01-20T17:52:28;3.80;99.90
15103;DHT22;7652;53.584;9.998;2023-01-20T17:55:31;3.70;99.90
15103;DHT22;7652;53.584;9.998;2023-01-20T17:58:34;3.80;99.90
15103;DHT22;7652;53.584;9.998;2023-01-20T18:01:38;3.90;99.90
15103;DHT22;7652;53.584;9.998;2023-01-20T18:04:41;4.00;99.90
15103;DHT22;7652;53.584;9.998;2023-01-20T18:07:45;4.00;99.90
15103;DHT22;7652;53.584;9.998;2023-01-20T18:10:48;3.80;99.90
15103;DHT22;7652;53.584;9.998;2023-01-20T18:13:53;3.90;99.90
15103;DHT22;7652;53.584;9.998;2023-01-20T18:16:56;3.90;99.90
15103;DHT22;7652;53.584;9.998;2023-01-20T18:20:00;3.90;99.90
15103;DHT22;7652;53.584;9.998;2023-01-20T18:23:04;3.90;99.90
15103;DHT22;7652;53.584;9.998;2023-01-20T18:26:08;3.80;99.90
15103;DHT22;7652;53.584;9.998;2023-01-20T18:29:13;3.70;99.90
15103;DHT22;7652;53.584;9.998;2023-01-20T18:32:17;3.70;99.90
15103;DHT22;7652;53.584;9.998;2023-01-20T18:35:20;3.70;99.90
15103;DHT22;7652;53.584;9.998;2023-01-20T18:38:24;3.70;99.90
15103;DHT22;7652;53.584;9.998;2023-01-20T18:41:29;3.70;99.90
15103;DHT22;7652;53.584;9.998;2023-01-20T18:44:32;3.70;99.90
15103;DHT22;7652;53.584;9.998;2023-01-20T18:47:36;3.60;99.90
15103;DHT22;7652;53.584;9.998;2023-01-20T18:50:39;3.60;99.90
15103;DHT22;7652;53.584;9.998;2023-01-20T18:53:45;3.60;99.90
15103;DHT22;7652;53.584;9.998;2023-01-20T18:56:49;3.60;99.90
15103;DHT22;7652;53.584;9.998;2023-01-20T18:59:52;3.60;99.90
15103;DHT22;7652;53.584;9.998;2023-01-20T19:02:55;3.60;99.90
15103;DHT22;7652;53.584;9.998;2023-01-20T19:06:03;3.70;99.90
15103;DHT22;7652;53.584;9.998;2023-01-20T19:09:08;3.50;99.90
15103;DHT22;7652;53.584;9.998;2023-01-20T19:12:11;3.70;99.90
15103;DHT22;7652;53.584;9.998;2023-01-20T19:15:15;3.70;99.90
15103;DHT22;7652;53.584;9.998;2023-01-20T19:18:18;3.80;99.90
15103;DHT22;7652;53.584;9.998;2023-01-20T19:21:22;3.80;99.90
15103;DHT22;7652;53.584;9.998;2023-01-20T19:24:27;3.70;99.90
15103;DHT22;7652;53.584;9.998;2023-01-20T19:27:31;3.60;99.90
15103;DHT22;7652;53.584;9.998;2023-01-20T19:30:34;3.40;99.90
15103;DHT22;7652;53.584;9.998;2023-01-20T19:33:39;3.40;99.90
15103;DHT22;7652;53.584;9.998;2023-01-20T19:36:42;3.50;99.90
15103;DHT22;7652;53.584;9.998;2023-01-20T19:39:47;3.60;99.90
15103;DHT22;7652;53.584;9.998;2023-01-20T19:42:51;3.70;99.90
15103;DHT22;7652;53.584;9.998;2023-01-20T19:45:54;3.80;99.90
15103;DHT22;7652;53.584;9.998;2023-01-20T19:48:57;3.90;99.90
15103;DHT22;7652;53.584;9.998;2023-01-20T19:52:00;3.80;99.90
15103;DHT22;7652;53.584;9.998;2023-01-20T19:55:05;3.80;99.90
15103;DHT22;7652;53.584;9.998;2023-01-20T19:58:08;3.80;99.90
15103;DHT22;7652;53.584;9.998;2023-01-20T20:01:13;3.80;99.90
15103;DHT22;7652;53.584;9.998;2023-01-20T20:04:16;3.80;99.90
15103;DHT22;7652;53.584;9.998;2023-01-20T20:07:21;3.90;99.90
15103;DHT22;7652;53.584;9.998;2023-01-20T20:10:25;3.90;99.90
15103;DHT22;7652;53.584;9.998;2023-01-20T20:13:28;3.90;99.90
15103;DHT22;7652;53.584;9.998;2023-01-20T20:16:33;3.90;99.90
15103;DHT22;7652;53.584;9.998;2023-01-20T20:19:37;4.00;99.90